首页
METAR-TAF:

METAR-TAF

机场 :

迪拜国际机场

杜拜, 阿拉伯联合酋长国

纬度: 25-15-10N, 经度: 055-21-52E, 海拔: 8米

当前天气观测

该预报发布于10分钟前的00:00 UTC
风速11节,风向西北
温度 28°C
湿度 74%
气压 1014 hPa
能见度10公里或以上
散云层高于1700英尺

METAR: OMDB 180000Z 32011KT 9999 SCT017 28/23 Q1014 NOSIG

时间: 04:10 (00:10 UTC)

预报

该预报发布于1小时和6分钟前的23:04 UTC
预报有效从18日的 00点(UTC)到 19日的 06点(UTC)
风速10节,风向西北
能見度: 8000
散云层高于1800英尺
几率 30%
从 18日的 00点(UTC)到 18日的 04点(UTC)
风速6节,风向西转西南
多云层高于1000英尺

TAF: OMDB 172304Z 1800/1906 31010KT 8000 SCT018 PROB30 1800/1804 25006KT BKN010

超过4000个机场的气象观测和天气预报(METAR&TAF报告)。

可查询的气象台以黄色和红色小点在地图上表示。

将鼠标移到小点上方,可查看气象台名称。

然后点击查看天气观测和预报。

如需切换地图:点击带黑十字的绿色按钮放大地图;点击带横线的绿色按钮缩小地图;或者点击绿色箭头查看邻近地区的地图。


METAR-TAF: